sensor_id;sensor_type;location;lat;lon;timestamp;pressure;altitude;pressure_sealevel;temperature;humidity
39487;BME280;25173;50.430;18.926;2023-10-19T00:02:49;97613.16;;;6.71;57.42
39487;BME280;25173;50.430;18.926;2023-10-19T00:05:56;97602.59;;;6.69;57.47
39487;BME280;25173;50.430;18.926;2023-10-19T00:08:56;97602.59;;;6.69;57.47
39487;BME280;25173;50.430;18.926;2023-10-19T00:11:59;97601.78;;;6.69;57.67
39487;BME280;25173;50.430;18.926;2023-10-19T00:15:00;97595.28;;;6.70;57.81
39487;BME280;25173;50.430;18.926;2023-10-19T00:18:04;97594.22;;;6.71;57.74
39487;BME280;25173;50.430;18.926;2023-10-19T00:21:16;97580.94;;;6.69;57.70
39487;BME280;25173;50.430;18.926;2023-10-19T00:24:31;97588.50;;;6.67;57.83
39487;BME280;25173;50.430;18.926;2023-10-19T00:27:39;97575.78;;;6.68;57.45
39487;BME280;25173;50.430;18.926;2023-10-19T00:30:44;97569.56;;;6.67;57.69
39487;BME280;25173;50.430;18.926;2023-10-19T00:33:46;97561.44;;;6.67;57.73
39487;BME280;25173;50.430;18.926;2023-10-19T00:36:47;97562.81;;;6.70;57.74
39487;BME280;25173;50.430;18.926;2023-10-19T00:39:52;97562.56;;;6.71;57.82
39487;BME280;25173;50.430;18.926;2023-10-19T00:42:56;97563.63;;;6.70;57.31
39487;BME280;25173;50.430;18.926;2023-10-19T00:46:20;97555.25;;;6.72;57.74
39487;BME280;25173;50.430;18.926;2023-10-19T00:49:26;97551.47;;;6.73;57.81
39487;BME280;25173;50.430;18.926;2023-10-19T00:52:36;97539.84;;;6.72;57.87
39487;BME280;25173;50.430;18.926;2023-10-19T00:55:53;97530.34;;;6.70;57.80
39487;BME280;25173;50.430;18.926;2023-10-19T00:58:58;97539.03;;;6.72;57.79
39487;BME280;25173;50.430;18.926;2023-10-19T01:02:15;97529.28;;;6.71;57.69
39487;BME280;25173;50.430;18.926;2023-10-19T01:05:41;97525.22;;;6.73;57.56
39487;BME280;25173;50.430;18.926;2023-10-19T01:09:03;97529.28;;;6.71;57.50
39487;BME280;25173;50.430;18.926;2023-10-19T01:12:12;97513.28;;;6.69;57.68
39487;BME280;25173;50.430;18.926;2023-10-19T01:15:25;97514.09;;;6.70;57.61
39487;BME280;25173;50.430;18.926;2023-10-19T01:18:28;97499.50;;;6.76;57.61
39487;BME280;25173;50.430;18.926;2023-10-19T01:21:29;97493.84;;;6.77;57.47
39487;BME280;25173;50.430;18.926;2023-10-19T01:24:38;97486.81;;;6.76;57.54
39487;BME280;25173;50.430;18.926;2023-10-19T01:27:42;97487.88;;;6.70;57.58
39487;BME280;25173;50.430;18.926;2023-10-19T01:30:43;97477.00;;;6.60;57.94
39487;BME280;25173;50.430;18.926;2023-10-19T01:33:51;97472.97;;;6.57;58.09
39487;BME280;25173;50.430;18.926;2023-10-19T01:36:55;97468.06;;;6.54;57.92
39487;BME280;25173;50.430;18.926;2023-10-19T01:39:57;97466.72;;;6.57;58.08
39487;BME280;25173;50.430;18.926;2023-10-19T01:42:58;97452.66;;;6.55;58.08
39487;BME280;25173;50.430;18.926;2023-10-19T01:46:00;97448.34;;;6.59;58.02
39487;BME280;25173;50.430;18.926;2023-10-19T01:49:05;97451.84;;;6.59;57.94
39487;BME280;25173;50.430;18.926;2023-10-19T01:52:08;97452.94;;;6.58;58.06
39487;BME280;25173;50.430;18.926;2023-10-19T01:55:10;97441.03;;;6.59;58.02
39487;BME280;25173;50.430;18.926;2023-10-19T01:58:12;97436.97;;;6.62;57.91
39487;BME280;25173;50.430;18.926;2023-10-19T02:01:15;97429.69;;;6.62;57.64
39487;BME280;25173;50.430;18.926;2023-10-19T02:04:29;97426.41;;;6.55;57.92
39487;BME280;25173;50.430;18.926;2023-10-19T02:07:29;97419.63;;;6.53;57.69
39487;BME280;25173;50.430;18.926;2023-10-19T02:10:30;97412.34;;;6.48;57.73
39487;BME280;25173;50.430;18.926;2023-10-19T02:13:32;97409.88;;;6.42;57.80
39487;BME280;25173;50.430;18.926;2023-10-19T02:16:33;97416.09;;;6.37;58.26
39487;BME280;25173;50.430;18.926;2023-10-19T02:19:33;97411.47;;;6.33;58.33
39487;BME280;25173;50.430;18.926;2023-10-19T02:22:34;97403.59;;;6.31;58.17
39487;BME280;25173;50.430;18.926;2023-10-19T02:25:36;97400.91;;;6.31;58.22
39487;BME280;25173;50.430;18.926;2023-10-19T02:28:37;97394.97;;;6.29;57.94
39487;BME280;25173;50.430;18.926;2023-10-19T02:31:40;97390.09;;;6.26;58.08
39487;BME280;25173;50.430;18.926;2023-10-19T02:34:41;97381.16;;;6.20;58.28
39487;BME280;25173;50.430;18.926;2023-10-19T02:37:41;97378.72;;;6.19;58.53
39487;BME280;25173;50.430;18.926;2023-10-19T02:40:42;97385.75;;;6.20;58.16
39487;BME280;25173;50.430;18.926;2023-10-19T02:43:43;97376.00;;;6.19;58.15
39487;BME280;25173;50.430;18.926;2023-10-19T02:46:53;97361.97;;;6.22;58.18
39487;BME280;25173;50.430;18.926;2023-10-19T02:49:58;97365.47;;;6.22;58.31
39487;BME280;25173;50.430;18.926;2023-10-19T02:52:59;97351.97;;;6.28;58.42
39487;BME280;25173;50.430;18.926;2023-10-19T02:56:14;97348.19;;;6.34;58.86
39487;BME280;25173;50.430;18.926;2023-10-19T02:59:18;97338.75;;;6.41;59.00
39487;BME280;25173;50.430;18.926;2023-10-19T03:02:25;97331.75;;;6.50;59.47
39487;BME280;25173;50.430;18.926;2023-10-19T03:05:28;97316.06;;;6.68;59.20
39487;BME280;25173;50.430;18.926;2023-10-19T03:08:30;97315.50;;;6.91;58.97
39487;BME280;25173;50.430;18.926;2023-10-19T03:11:31;97312.25;;;7.04;58.71
39487;BME280;25173;50.430;18.926;2023-10-19T03:14:33;97308.47;;;7.10;58.73
39487;BME280;25173;50.430;18.926;2023-10-19T03:17:34;97312.25;;;7.19;58.73
39487;BME280;25173;50.430;18.926;2023-10-19T03:20:37;97309.28;;;7.26;58.85
39487;BME280;25173;50.430;18.926;2023-10-19T03:23:38;97296.78;;;7.35;58.75
39487;BME280;25173;50.430;18.926;2023-10-19T03:26:41;97303.00;;;7.46;58.57
39487;BME280;25173;50.430;18.926;2023-10-19T03:29:50;97297.00;;;7.49;58.68
39487;BME280;25173;50.430;18.926;2023-10-19T03:33:00;97292.41;;;7.49;58.65
39487;BME280;25173;50.430;18.926;2023-10-19T03:36:02;97286.72;;;7.51;59.05
39487;BME280;25173;50.430;18.926;2023-10-19T03:39:05;97282.63;;;7.58;59.21
39487;BME280;25173;50.430;18.926;2023-10-19T03:42:19;97285.03;;;7.65;59.16
39487;BME280;25173;50.430;18.926;2023-10-19T03:45:21;97288.03;;;7.68;59.37
39487;BME280;25173;50.430;18.926;2023-10-19T03:48:28;97276.34;;;7.78;59.41
39487;BME280;25173;50.430;18.926;2023-10-19T03:51:37;97279.25;;;7.87;59.03
39487;BME280;25173;50.430;18.926;2023-10-19T03:55:07;97265.69;;;7.92;58.97
39487;BME280;25173;50.430;18.926;2023-10-19T03:58:43;97253.72;;;7.98;58.96
39487;BME280;25173;50.430;18.926;2023-10-19T04:01:47;97248.28;;;8.03;58.68
39487;BME280;25173;50.430;18.926;2023-10-19T04:04:48;97233.91;;;8.02;58.87
39487;BME280;25173;50.430;18.926;2023-10-19T04:07:49;97238.28;;;7.98;58.63
39487;BME280;25173;50.430;18.926;2023-10-19T04:10:55;97232.28;;;8.01;58.89
39487;BME280;25173;50.430;18.926;2023-10-19T04:14:09;97240.34;;;8.11;59.38
39487;BME280;25173;50.430;18.926;2023-10-19T04:17:09;97230.81;;;8.19;59.50
39487;BME280;25173;50.430;18.926;2023-10-19T04:20:13;97222.06;;;8.32;59.47
39487;BME280;25173;50.430;18.926;2023-10-19T04:23:17;97211.97;;;8.43;59.45
39487;BME280;25173;50.430;18.926;2023-10-19T04:26:17;97193.94;;;8.57;59.58
39487;BME280;25173;50.430;18.926;2023-10-19T04:29:19;97190.81;;;8.74;59.24
39487;BME280;25173;50.430;18.926;2023-10-19T04:32:27;97186.31;;;8.88;59.18
39487;BME280;25173;50.430;18.926;2023-10-19T04:35:27;97188.63;;;9.00;58.93
39487;BME280;25173;50.430;18.926;2023-10-19T04:38:32;97202.41;;;9.08;58.81
39487;BME280;25173;50.430;18.926;2023-10-19T04:41:33;97193.91;;;9.15;59.07
39487;BME280;25173;50.430;18.926;2023-10-19T04:44:35;97176.44;;;9.21;59.01
39487;BME280;25173;50.430;18.926;2023-10-19T04:47:36;97167.38;;;9.30;58.99
39487;BME280;25173;50.430;18.926;2023-10-19T04:50:37;97176.19;;;9.41;58.92
39487;BME280;25173;50.430;18.926;2023-10-19T04:53:38;97172.34;;;9.47;58.72
39487;BME280;25173;50.430;18.926;2023-10-19T04:56:39;97172.78;;;9.54;58.77
39487;BME280;25173;50.430;18.926;2023-10-19T04:59:39;97166.25;;;9.55;58.86
39487;BME280;25173;50.430;18.926;2023-10-19T05:02:40;97154.72;;;9.63;58.79
39487;BME280;25173;50.430;18.926;2023-10-19T05:05:40;97148.97;;;9.65;58.91
39487;BME280;25173;50.430;18.926;2023-10-19T05:08:41;97150.31;;;9.67;58.62
39487;BME280;25173;50.430;18.926;2023-10-19T05:11:42;97156.28;;;9.69;58.68
39487;BME280;25173;50.430;18.926;2023-10-19T05:14:44;97146.44;;;9.73;58.78
39487;BME280;25173;50.430;18.926;2023-10-19T05:17:46;97142.53;;;9.80;58.83
39487;BME280;25173;50.430;18.926;2023-10-19T05:20:47;97147.97;;;9.80;58.84
39487;BME280;25173;50.430;18.926;2023-10-19T05:23:47;97146.34;;;9.79;59.06
39487;BME280;25173;50.430;18.926;2023-10-19T05:26:48;97156.94;;;9.80;59.28
39487;BME280;25173;50.430;18.926;2023-10-19T05:29:49;97158.25;;;9.83;59.42
39487;BME280;25173;50.430;18.926;2023-10-19T05:32:51;97166.94;;;9.85;59.39
39487;BME280;25173;50.430;18.926;2023-10-19T05:35:52;97162.09;;;9.82;59.70
39487;BME280;25173;50.430;18.926;2023-10-19T05:38:53;97165.91;;;9.81;59.87
39487;BME280;25173;50.430;18.926;2023-10-19T05:41:57;97162.66;;;9.79;60.15
39487;BME280;25173;50.430;18.926;2023-10-19T05:45:00;97159.38;;;9.82;60.13
39487;BME280;25173;50.430;18.926;2023-10-19T05:48:04;97154.28;;;9.94;60.27
39487;BME280;25173;50.430;18.926;2023-10-19T05:51:06;97155.16;;;10.08;59.97
39487;BME280;25173;50.430;18.926;2023-10-19T05:54:07;97156.50;;;10.29;60.29
39487;BME280;25173;50.430;18.926;2023-10-19T05:57:09;97155.66;;;10.47;60.32
39487;BME280;25173;50.430;18.926;2023-10-19T06:00:10;97141.47;;;10.64;60.07
39487;BME280;25173;50.430;18.926;2023-10-19T06:03:14;97146.03;;;10.82;59.86
39487;BME280;25173;50.430;18.926;2023-10-19T06:06:14;97134.03;;;10.97;60.13
39487;BME280;25173;50.430;18.926;2023-10-19T06:09:16;97128.81;;;11.14;60.20
39487;BME280;25173;50.430;18.926;2023-10-19T06:12:17;97133.44;;;11.27;59.89
39487;BME280;25173;50.430;18.926;2023-10-19T06:15:19;97141.13;;;11.39;59.31
39487;BME280;25173;50.430;18.926;2023-10-19T06:18:26;97130.22;;;11.53;58.75
39487;BME280;25173;50.430;18.926;2023-10-19T06:21:26;97120.06;;;11.67;58.46
39487;BME280;25173;50.430;18.926;2023-10-19T06:24:27;97116.03;;;11.78;58.27
39487;BME280;25173;50.430;18.926;2023-10-19T06:27:27;97118.41;;;11.93;58.25
39487;BME280;25173;50.430;18.926;2023-10-19T06:30:30;97108.28;;;12.08;58.08
39487;BME280;25173;50.430;18.926;2023-10-19T06:33:31;97103.56;;;12.22;57.90
39487;BME280;25173;50.430;18.926;2023-10-19T06:36:33;97098.84;;;12.36;57.81
39487;BME280;25173;50.430;18.926;2023-10-19T06:39:34;97090.06;;;12.48;57.57
39487;BME280;25173;50.430;18.926;2023-10-19T06:42:34;97091.75;;;12.57;57.61
39487;BME280;25173;50.430;18.926;2023-10-19T06:45:35;97084.06;;;12.68;57.41
39487;BME280;25173;50.430;18.926;2023-10-19T06:48:36;97073.81;;;12.73;57.14
39487;BME280;25173;50.430;18.926;2023-10-19T06:51:36;97069.84;;;12.79;56.84
39487;BME280;25173;50.430;18.926;2023-10-19T06:54:37;97064.72;;;12.87;56.70
39487;BME280;25173;50.430;18.926;2023-10-19T06:57:40;97061.72;;;12.97;56.58
39487;BME280;25173;50.430;18.926;2023-10-19T07:00:41;97050.97;;;13.09;56.31
39487;BME280;25173;50.430;18.926;2023-10-19T07:03:45;97048.28;;;13.17;56.42
39487;BME280;25173;50.430;18.926;2023-10-19T07:06:45;97046.53;;;13.30;56.23
39487;BME280;25173;50.430;18.926;2023-10-19T07:09:48;97045.44;;;13.40;55.79
39487;BME280;25173;50.430;18.926;2023-10-19T07:12:53;97050.44;;;13.46;55.23
39487;BME280;25173;50.430;18.926;2023-10-19T07:15:54;97045.28;;;13.45;54.69
39487;BME280;25173;50.430;18.926;2023-10-19T07:18:55;97032.41;;;13.45;54.95
39487;BME280;25173;50.430;18.926;2023-10-19T07:21:58;97029.03;;;13.57;55.10
39487;BME280;25173;50.430;18.926;2023-10-19T07:24:58;97038.38;;;13.65;54.87
39487;BME280;25173;50.430;18.926;2023-10-19T07:28:00;97032.09;;;13.73;54.70
39487;BME280;25173;50.430;18.926;2023-10-19T07:31:00;97034.53;;;13.83;54.50
39487;BME280;25173;50.430;18.926;2023-10-19T07:34:01;97023.72;;;13.95;54.65
39487;BME280;25173;50.430;18.926;2023-10-19T07:37:02;97023.22;;;14.10;54.15
39487;BME280;25173;50.430;18.926;2023-10-19T07:40:04;97022.09;;;14.20;53.77
39487;BME280;25173;50.430;18.926;2023-10-19T07:43:05;97024.63;;;14.33;53.26
39487;BME280;25173;50.430;18.926;2023-10-19T07:46:06;97023.66;;;14.47;53.21
39487;BME280;25173;50.430;18.926;2023-10-19T07:49:08;97022.63;;;14.60;52.73
39487;BME280;25173;50.430;18.926;2023-10-19T07:52:09;97002.44;;;14.73;52.82
39487;BME280;25173;50.430;18.926;2023-10-19T07:55:16;97004.97;;;14.87;51.82
39487;BME280;25173;50.430;18.926;2023-10-19T07:58:17;97009.41;;;15.00;51.90
39487;BME280;25173;50.430;18.926;2023-10-19T08:01:17;97004.44;;;15.23;51.60
39487;BME280;25173;50.430;18.926;2023-10-19T08:04:18;96997.03;;;15.44;51.53
39487;BME280;25173;50.430;18.926;2023-10-19T08:07:18;96990.09;;;15.67;51.66
39487;BME280;25173;50.430;18.926;2023-10-19T08:10:20;96979.38;;;15.74;50.53
39487;BME280;25173;50.430;18.926;2023-10-19T08:13:21;96983.94;;;15.70;50.69
39487;BME280;25173;50.430;18.926;2023-10-19T08:16:21;96983.00;;;15.66;50.47
39487;BME280;25173;50.430;18.926;2023-10-19T08:19:23;96974.81;;;15.78;50.52
39487;BME280;25173;50.430;18.926;2023-10-19T08:22:23;96966.16;;;15.88;50.43
39487;BME280;25173;50.430;18.926;2023-10-19T08:25:25;96968.28;;;16.04;50.53
39487;BME280;25173;50.430;18.926;2023-10-19T08:28:27;96977.84;;;16.30;50.33
39487;BME280;25173;50.430;18.926;2023-10-19T08:31:28;96971.81;;;16.49;49.78
39487;BME280;25173;50.430;18.926;2023-10-19T08:34:28;96976.09;;;16.59;49.49
39487;BME280;25173;50.430;18.926;2023-10-19T08:37:30;96964.41;;;16.62;49.24
39487;BME280;25173;50.430;18.926;2023-10-19T08:40:30;96980.41;;;16.60;49.34
39487;BME280;25173;50.430;18.926;2023-10-19T08:43:31;96964.97;;;16.55;49.13
39487;BME280;25173;50.430;18.926;2023-10-19T08:46:34;96952.47;;;16.46;48.71
39487;BME280;25173;50.430;18.926;2023-10-19T08:49:36;96956.66;;;16.31;48.80
39487;BME280;25173;50.430;18.926;2023-10-19T08:52:37;96951.28;;;16.22;48.94
39487;BME280;25173;50.430;18.926;2023-10-19T08:55:38;96941.31;;;16.18;48.90
39487;BME280;25173;50.430;18.926;2023-10-19T08:58:39;96933.88;;;16.18;48.96
39487;BME280;25173;50.430;18.926;2023-10-19T09:01:39;96937.19;;;16.24;49.07
39487;BME280;25173;50.430;18.926;2023-10-19T09:04:43;96919.66;;;16.16;48.55
39487;BME280;25173;50.430;18.926;2023-10-19T09:07:44;96926.66;;;16.14;49.09
39487;BME280;25173;50.430;18.926;2023-10-19T09:10:49;96919.56;;;16.13;48.77
39487;BME280;25173;50.430;18.926;2023-10-19T09:13:52;96917.94;;;16.12;48.66
39487;BME280;25173;50.430;18.926;2023-10-19T09:16:54;96915.69;;;16.14;48.49
39487;BME280;25173;50.430;18.926;2023-10-19T09:19:58;96909.94;;;16.19;48.40
39487;BME280;25173;50.430;18.926;2023-10-19T09:23:03;96920.50;;;16.29;49.05
39487;BME280;25173;50.430;18.926;2023-10-19T09:26:04;96922.13;;;16.42;48.79
39487;BME280;25173;50.430;18.926;2023-10-19T09:29:05;96925.66;;;16.55;48.88
39487;BME280;25173;50.430;18.926;2023-10-19T09:32:07;96919.84;;;16.68;48.95
39487;BME280;25173;50.430;18.926;2023-10-19T09:35:08;96917.81;;;16.78;49.11
39487;BME280;25173;50.430;18.926;2023-10-19T09:38:11;96914.81;;;16.83;48.99
39487;BME280;25173;50.430;18.926;2023-10-19T09:41:12;96915.53;;;16.80;49.27
39487;BME280;25173;50.430;18.926;2023-10-19T09:44:14;96918.59;;;16.78;49.30
39487;BME280;25173;50.430;18.926;2023-10-19T09:47:25;96913.78;;;16.75;48.61
39487;BME280;25173;50.430;18.926;2023-10-19T09:50:26;96905.91;;;16.74;48.86
39487;BME280;25173;50.430;18.926;2023-10-19T09:53:28;96895.81;;;16.78;49.33
39487;BME280;25173;50.430;18.926;2023-10-19T09:56:42;96891.09;;;16.78;48.95
39487;BME280;25173;50.430;18.926;2023-10-19T09:59:47;96883.69;;;16.66;49.34
39487;BME280;25173;50.430;18.926;2023-10-19T10:02:51;96868.22;;;16.62;49.54
39487;BME280;25173;50.430;18.926;2023-10-19T10:05:52;96870.03;;;16.58;49.37
39487;BME280;25173;50.430;18.926;2023-10-19T10:08:53;96872.09;;;16.49;49.83
39487;BME280;25173;50.430;18.926;2023-10-19T10:11:54;96863.97;;;16.52;50.03
39487;BME280;25173;50.430;18.926;2023-10-19T10:15:04;96861.22;;;16.52;50.17
39487;BME280;25173;50.430;18.926;2023-10-19T10:18:12;96862.56;;;16.46;50.42
39487;BME280;25173;50.430;18.926;2023-10-19T10:21:14;96852.06;;;16.36;50.48
39487;BME280;25173;50.430;18.926;2023-10-19T10:24:19;96845.53;;;16.28;50.96
39487;BME280;25173;50.430;18.926;2023-10-19T10:27:20;96843.13;;;16.27;51.23
39487;BME280;25173;50.430;18.926;2023-10-19T10:30:21;96836.94;;;16.30;51.30
39487;BME280;25173;50.430;18.926;2023-10-19T10:33:46;96822.97;;;16.35;51.19
39487;BME280;25173;50.430;18.926;2023-10-19T10:37:00;96816.53;;;16.31;51.29
39487;BME280;25173;50.430;18.926;2023-10-19T10:40:04;96811.06;;;16.31;51.73
39487;BME280;25173;50.430;18.926;2023-10-19T10:43:06;96803.41;;;16.37;51.70
39487;BME280;25173;50.430;18.926;2023-10-19T10:46:07;96805.34;;;16.36;51.93
39487;BME280;25173;50.430;18.926;2023-10-19T10:49:08;96796.41;;;16.39;52.34
39487;BME280;25173;50.430;18.926;2023-10-19T10:52:09;96790.31;;;16.46;52.29
39487;BME280;25173;50.430;18.926;2023-10-19T10:55:12;96775.09;;;16.48;52.28
39487;BME280;25173;50.430;18.926;2023-10-19T10:58:16;96772.00;;;16.38;52.45
39487;BME280;25173;50.430;18.926;2023-10-19T11:01:31;96776.72;;;16.37;52.74
39487;BME280;25173;50.430;18.926;2023-10-19T11:04:43;96773.81;;;16.46;52.83
39487;BME280;25173;50.430;18.926;2023-10-19T11:08:09;96772.09;;;16.53;53.01
39487;BME280;25173;50.430;18.926;2023-10-19T11:11:10;96764.78;;;16.57;53.48
39487;BME280;25173;50.430;18.926;2023-10-19T11:14:13;96764.69;;;16.66;53.48
39487;BME280;25173;50.430;18.926;2023-10-19T11:17:14;96768.06;;;16.75;53.24
39487;BME280;25173;50.430;18.926;2023-10-19T11:20:23;96778.72;;;16.89;53.58
39487;BME280;25173;50.430;18.926;2023-10-19T11:23:40;96771.00;;;16.94;53.33
39487;BME280;25173;50.430;18.926;2023-10-19T11:26:42;96774.31;;;17.00;53.23
39487;BME280;25173;50.430;18.926;2023-10-19T11:29:59;96770.41;;;17.01;52.99
39487;BME280;25173;50.430;18.926;2023-10-19T11:33:03;96771.56;;;17.00;52.89
39487;BME280;25173;50.430;18.926;2023-10-19T11:36:05;96771.09;;;16.98;53.38
39487;BME280;25173;50.430;18.926;2023-10-19T11:39:05;96774.75;;;17.02;53.57
39487;BME280;25173;50.430;18.926;2023-10-19T11:42:12;96779.47;;;17.01;52.95
39487;BME280;25173;50.430;18.926;2023-10-19T11:45:13;96776.84;;;16.93;52.91
39487;BME280;25173;50.430;18.926;2023-10-19T11:48:13;96775.03;;;16.85;53.40
39487;BME280;25173;50.430;18.926;2023-10-19T11:51:14;96768.50;;;16.89;53.68
39487;BME280;25173;50.430;18.926;2023-10-19T11:54:15;96765.84;;;16.93;53.68
39487;BME280;25173;50.430;18.926;2023-10-19T11:57:18;96761.22;;;16.97;53.97
39487;BME280;25173;50.430;18.926;2023-10-19T12:00:19;96755.03;;;17.00;54.02
39487;BME280;25173;50.430;18.926;2023-10-19T12:03:25;96754.69;;;17.01;54.27
39487;BME280;25173;50.430;18.926;2023-10-19T12:06:26;96752.28;;;17.00;54.25
39487;BME280;25173;50.430;18.926;2023-10-19T12:09:26;96742.09;;;17.00;54.55
39487;BME280;25173;50.430;18.926;2023-10-19T12:12:27;96745.09;;;16.95;54.47
39487;BME280;25173;50.430;18.926;2023-10-19T12:15:28;96742.25;;;16.92;54.56
39487;BME280;25173;50.430;18.926;2023-10-19T12:18:29;96737.47;;;16.89;54.65
39487;BME280;25173;50.430;18.926;2023-10-19T12:21:29;96737.47;;;16.89;54.76
39487;BME280;25173;50.430;18.926;2023-10-19T12:24:31;96729.56;;;16.87;54.75
39487;BME280;25173;50.430;18.926;2023-10-19T12:27:32;96724.41;;;16.86;54.92
39487;BME280;25173;50.430;18.926;2023-10-19T12:30:32;96723.59;;;16.85;55.23
39487;BME280;25173;50.430;18.926;2023-10-19T12:33:37;96718.00;;;16.82;55.73
39487;BME280;25173;50.430;18.926;2023-10-19T12:36:39;96718.44;;;16.84;55.83
39487;BME280;25173;50.430;18.926;2023-10-19T12:39:41;96717.28;;;16.85;55.69
39487;BME280;25173;50.430;18.926;2023-10-19T12:42:55;96709.19;;;16.76;55.59
39487;BME280;25173;50.430;18.926;2023-10-19T12:45:56;96683.00;;;16.66;55.42
39487;BME280;25173;50.430;18.926;2023-10-19T12:48:58;96700.22;;;16.51;55.77
39487;BME280;25173;50.430;18.926;2023-10-19T12:51:59;96694.03;;;16.42;56.56
39487;BME280;25173;50.430;18.926;2023-10-19T12:55:01;96691.31;;;16.42;56.63
39487;BME280;25173;50.430;18.926;2023-10-19T12:58:05;96688.09;;;16.40;56.84
39487;BME280;25173;50.430;18.926;2023-10-19T13:01:09;96683.31;;;16.37;57.22
39487;BME280;25173;50.430;18.926;2023-10-19T13:04:16;96681.78;;;16.40;57.31
39487;BME280;25173;50.430;18.926;2023-10-19T13:07:18;96672.53;;;16.44;57.19
39487;BME280;25173;50.430;18.926;2023-10-19T13:10:20;96674.47;;;16.44;57.35
39487;BME280;25173;50.430;18.926;2023-10-19T13:13:20;96670.00;;;16.39;57.26
39487;BME280;25173;50.430;18.926;2023-10-19T13:16:24;96658.22;;;16.39;57.52
39487;BME280;25173;50.430;18.926;2023-10-19T13:19:25;96657.06;;;16.40;57.75
39487;BME280;25173;50.430;18.926;2023-10-19T13:22:26;96660.16;;;16.38;57.83
39487;BME280;25173;50.430;18.926;2023-10-19T13:25:27;96638.88;;;16.35;57.96
39487;BME280;25173;50.430;18.926;2023-10-19T13:28:46;96635.00;;;16.36;57.98
39487;BME280;25173;50.430;18.926;2023-10-19T13:31:49;96625.94;;;16.36;58.18
39487;BME280;25173;50.430;18.926;2023-10-19T13:34:49;96630.84;;;16.42;58.30
39487;BME280;25173;50.430;18.926;2023-10-19T13:37:50;96621.47;;;16.43;58.45
39487;BME280;25173;50.430;18.926;2023-10-19T13:40:50;96621.34;;;16.40;58.47
39487;BME280;25173;50.430;18.926;2023-10-19T13:43:51;96598.47;;;16.36;58.87
39487;BME280;25173;50.430;18.926;2023-10-19T13:46:53;96595.81;;;16.39;58.94
39487;BME280;25173;50.430;18.926;2023-10-19T13:49:54;96597.16;;;16.45;59.08
39487;BME280;25173;50.430;18.926;2023-10-19T13:52:55;96589.38;;;16.47;59.12
39487;BME280;25173;50.430;18.926;2023-10-19T13:55:57;96582.28;;;16.46;59.10
39487;BME280;25173;50.430;18.926;2023-10-19T13:58:57;96575.19;;;16.45;59.15
39487;BME280;25173;50.430;18.926;2023-10-19T14:01:59;96578.38;;;16.47;59.23
39487;BME280;25173;50.430;18.926;2023-10-19T14:04:59;96584.34;;;16.49;59.40
39487;BME280;25173;50.430;18.926;2023-10-19T14:08:01;96572.09;;;16.47;59.35
39487;BME280;25173;50.430;18.926;2023-10-19T14:11:02;96588.13;;;16.45;59.53
39487;BME280;25173;50.430;18.926;2023-10-19T14:14:03;96585.28;;;16.41;59.87
39487;BME280;25173;50.430;18.926;2023-10-19T14:17:04;96583.00;;;16.43;59.95
39487;BME280;25173;50.430;18.926;2023-10-19T14:20:06;96587.34;;;16.44;59.83
39487;BME280;25173;50.430;18.926;2023-10-19T14:23:07;96589.28;;;16.44;60.00
39487;BME280;25173;50.430;18.926;2023-10-19T14:26:09;96596.00;;;16.46;60.18
39487;BME280;25173;50.430;18.926;2023-10-19T14:29:09;96596.47;;;16.48;59.91
39487;BME280;25173;50.430;18.926;2023-10-19T14:32:10;96594.53;;;16.49;59.74
39487;BME280;25173;50.430;18.926;2023-10-19T14:35:11;96594.66;;;16.40;60.22
39487;BME280;25173;50.430;18.926;2023-10-19T14:38:12;96600.78;;;16.34;60.22
39487;BME280;25173;50.430;18.926;2023-10-19T14:41:15;96597.56;;;16.31;60.52
39487;BME280;25173;50.430;18.926;2023-10-19T14:44:16;96602.72;;;16.33;60.63
39487;BME280;25173;50.430;18.926;2023-10-19T14:47:16;96601.81;;;16.29;60.68
39487;BME280;25173;50.430;18.926;2023-10-19T14:50:18;96594.72;;;16.28;60.81
39487;BME280;25173;50.430;18.926;2023-10-19T14:53:18;96602.06;;;16.24;60.72
39487;BME280;25173;50.430;18.926;2023-10-19T14:56:19;96598.50;;;16.23;60.90
39487;BME280;25173;50.430;18.926;2023-10-19T14:59:20;96591.88;;;16.24;60.90
39487;BME280;25173;50.430;18.926;2023-10-19T15:02:21;96587.88;;;16.22;60.97
39487;BME280;25173;50.430;18.926;2023-10-19T15:05:23;96591.78;;;16.21;60.83
39487;BME280;25173;50.430;18.926;2023-10-19T15:08:27;96582.63;;;16.17;60.88
39487;BME280;25173;50.430;18.926;2023-10-19T15:11:31;96580.34;;;16.19;61.08
39487;BME280;25173;50.430;18.926;2023-10-19T15:14:31;96583.09;;;16.19;61.03
39487;BME280;25173;50.430;18.926;2023-10-19T15:17:32;96581.03;;;16.16;61.14
39487;BME280;25173;50.430;18.926;2023-10-19T15:20:33;96582.19;;;16.15;61.13
39487;BME280;25173;50.430;18.926;2023-10-19T15:23:35;96576.69;;;16.15;61.25
39487;BME280;25173;50.430;18.926;2023-10-19T15:26:36;96565.72;;;16.15;61.33
39487;BME280;25173;50.430;18.926;2023-10-19T15:29:36;96568.88;;;16.17;61.44
39487;BME280;25173;50.430;18.926;2023-10-19T15:32:40;96560.91;;;16.12;61.46
39487;BME280;25173;50.430;18.926;2023-10-19T15:35:47;96560.03;;;16.08;61.61
39487;BME280;25173;50.430;18.926;2023-10-19T15:38:48;96557.97;;;16.05;61.66
39487;BME280;25173;50.430;18.926;2023-10-19T15:41:49;96563.09;;;16.06;61.61
39487;BME280;25173;50.430;18.926;2023-10-19T15:44:50;96567.78;;;16.06;61.73
39487;BME280;25173;50.430;18.926;2023-10-19T15:47:54;96563.91;;;16.07;61.80
39487;BME280;25173;50.430;18.926;2023-10-19T15:50:56;96564.59;;;16.04;61.65
39487;BME280;25173;50.430;18.926;2023-10-19T15:53:57;96561.38;;;16.02;61.73
39487;BME280;25173;50.430;18.926;2023-10-19T15:56:57;96559.69;;;15.97;61.77
39487;BME280;25173;50.430;18.926;2023-10-19T15:59:58;96556.50;;;15.95;62.12
39487;BME280;25173;50.430;18.926;2023-10-19T16:02:59;96554.88;;;15.94;62.03